sensor_id;sensor_type;location;lat;lon;timestamp;temperature;humidity
29341;DHT22;16337;59.536;13.468;2022-07-29T00:00:06;10.60;99.90
29341;DHT22;16337;59.536;13.468;2022-07-29T00:02:32;10.60;99.90
29341;DHT22;16337;59.536;13.468;2022-07-29T00:04:58;10.50;99.90
29341;DHT22;16337;59.536;13.468;2022-07-29T00:07:24;10.50;99.90
29341;DHT22;16337;59.536;13.468;2022-07-29T00:09:50;10.50;99.90
29341;DHT22;16337;59.536;13.468;2022-07-29T00:12:16;10.50;99.90
29341;DHT22;16337;59.536;13.468;2022-07-29T00:14:42;10.40;99.90
29341;DHT22;16337;59.536;13.468;2022-07-29T00:17:08;10.40;99.90
29341;DHT22;16337;59.536;13.468;2022-07-29T00:19:34;10.30;99.90
29341;DHT22;16337;59.536;13.468;2022-07-29T00:22:00;10.40;99.90
29341;DHT22;16337;59.536;13.468;2022-07-29T00:24:26;10.40;99.90
29341;DHT22;16337;59.536;13.468;2022-07-29T00:26:52;10.30;99.90
29341;DHT22;16337;59.536;13.468;2022-07-29T00:29:18;10.30;99.90
29341;DHT22;16337;59.536;13.468;2022-07-29T00:31:44;10.30;99.90
29341;DHT22;16337;59.536;13.468;2022-07-29T00:34:09;10.30;99.90
29341;DHT22;16337;59.536;13.468;2022-07-29T00:36:55;10.30;99.90
29341;DHT22;16337;59.536;13.468;2022-07-29T00:39:21;10.20;99.90
29341;DHT22;16337;59.536;13.468;2022-07-29T00:41:47;10.20;99.90
29341;DHT22;16337;59.536;13.468;2022-07-29T00:44:14;10.20;99.90
29341;DHT22;16337;59.536;13.468;2022-07-29T00:46:39;10.20;99.90
29341;DHT22;16337;59.536;13.468;2022-07-29T00:49:08;10.20;99.90
29341;DHT22;16337;59.536;13.468;2022-07-29T00:51:37;10.20;99.90
29341;DHT22;16337;59.536;13.468;2022-07-29T00:54:06;10.10;99.90
29341;DHT22;16337;59.536;13.468;2022-07-29T00:56:33;10.10;99.90
29341;DHT22;16337;59.536;13.468;2022-07-29T00:58:59;10.00;99.90
29341;DHT22;16337;59.536;13.468;2022-07-29T01:01:26;10.00;99.90
29341;DHT22;16337;59.536;13.468;2022-07-29T01:03:51;10.00;99.90
29341;DHT22;16337;59.536;13.468;2022-07-29T01:06:18;10.00;99.90
29341;DHT22;16337;59.536;13.468;2022-07-29T01:08:45;10.00;99.90
29341;DHT22;16337;59.536;13.468;2022-07-29T01:11:13;10.00;99.90
29341;DHT22;16337;59.536;13.468;2022-07-29T01:13:39;9.90;99.90
29341;DHT22;16337;59.536;13.468;2022-07-29T01:16:30;9.90;99.90
29341;DHT22;16337;59.536;13.468;2022-07-29T01:21:54;9.80;99.90
29341;DHT22;16337;59.536;13.468;2022-07-29T01:29:56;9.70;99.90
29341;DHT22;16337;59.536;13.468;2022-07-29T01:32:28;9.70;99.90
29341;DHT22;16337;59.536;13.468;2022-07-29T01:35:17;9.70;99.90
29341;DHT22;16337;59.536;13.468;2022-07-29T01:37:57;9.70;99.90
29341;DHT22;16337;59.536;13.468;2022-07-29T01:40:32;9.60;99.90
29341;DHT22;16337;59.536;13.468;2022-07-29T01:43:03;9.60;99.90
29341;DHT22;16337;59.536;13.468;2022-07-29T01:45:38;9.60;99.90
29341;DHT22;16337;59.536;13.468;2022-07-29T01:48:30;9.50;99.90
29341;DHT22;16337;59.536;13.468;2022-07-29T01:53:52;9.50;99.90
29341;DHT22;16337;59.536;13.468;2022-07-29T01:56:21;9.50;99.90
29341;DHT22;16337;59.536;13.468;2022-07-29T01:58:49;9.40;99.90
29341;DHT22;16337;59.536;13.468;2022-07-29T02:01:18;9.40;99.90
29341;DHT22;16337;59.536;13.468;2022-07-29T02:03:45;9.40;99.90
29341;DHT22;16337;59.536;13.468;2022-07-29T02:06:15;9.30;99.90
29341;DHT22;16337;59.536;13.468;2022-07-29T02:08:43;9.30;99.90
29341;DHT22;16337;59.536;13.468;2022-07-29T02:11:09;9.30;99.90
29341;DHT22;16337;59.536;13.468;2022-07-29T02:13:39;9.20;99.90
29341;DHT22;16337;59.536;13.468;2022-07-29T02:16:07;9.20;99.90
29341;DHT22;16337;59.536;13.468;2022-07-29T02:18:36;9.20;99.90
29341;DHT22;16337;59.536;13.468;2022-07-29T02:21:13;9.20;99.90
29341;DHT22;16337;59.536;13.468;2022-07-29T02:23:44;9.10;99.90
29341;DHT22;16337;59.536;13.468;2022-07-29T02:26:11;9.10;99.90
29341;DHT22;16337;59.536;13.468;2022-07-29T02:28:40;9.10;99.90
29341;DHT22;16337;59.536;13.468;2022-07-29T02:31:07;9.10;99.90
29341;DHT22;16337;59.536;13.468;2022-07-29T02:33:34;9.00;99.90
29341;DHT22;16337;59.536;13.468;2022-07-29T02:36:00;9.00;99.90
29341;DHT22;16337;59.536;13.468;2022-07-29T02:38:27;9.00;99.90
29341;DHT22;16337;59.536;13.468;2022-07-29T02:41:23;9.00;99.90
29341;DHT22;16337;59.536;13.468;2022-07-29T02:43:55;8.90;99.90
29341;DHT22;16337;59.536;13.468;2022-07-29T02:46:27;8.90;99.90
29341;DHT22;16337;59.536;13.468;2022-07-29T02:49:17;9.00;99.90
29341;DHT22;16337;59.536;13.468;2022-07-29T02:52:22;9.00;99.90
29341;DHT22;16337;59.536;13.468;2022-07-29T03:00:29;9.00;99.90
29341;DHT22;16337;59.536;13.468;2022-07-29T03:02:58;9.00;99.90
29341;DHT22;16337;59.536;13.468;2022-07-29T03:05:29;9.00;99.90
29341;DHT22;16337;59.536;13.468;2022-07-29T03:08:00;9.00;99.90
29341;DHT22;16337;59.536;13.468;2022-07-29T03:10:26;9.10;99.90
29341;DHT22;16337;59.536;13.468;2022-07-29T03:12:54;9.20;99.90
29341;DHT22;16337;59.536;13.468;2022-07-29T03:15:20;9.20;99.90
29341;DHT22;16337;59.536;13.468;2022-07-29T03:17:47;9.30;99.90
29341;DHT22;16337;59.536;13.468;2022-07-29T03:20:15;9.30;99.90
29341;DHT22;16337;59.536;13.468;2022-07-29T03:22:42;9.40;99.90
29341;DHT22;16337;59.536;13.468;2022-07-29T03:25:12;9.40;99.90
29341;DHT22;16337;59.536;13.468;2022-07-29T03:27:39;9.50;99.90
29341;DHT22;16337;59.536;13.468;2022-07-29T03:30:06;9.50;99.90
29341;DHT22;16337;59.536;13.468;2022-07-29T03:32:32;9.60;99.90
29341;DHT22;16337;59.536;13.468;2022-07-29T03:34:58;9.60;99.90
29341;DHT22;16337;59.536;13.468;2022-07-29T03:37:23;9.60;99.90
29341;DHT22;16337;59.536;13.468;2022-07-29T03:39:50;9.70;99.90
29341;DHT22;16337;59.536;13.468;2022-07-29T03:42:19;9.80;99.90
29341;DHT22;16337;59.536;13.468;2022-07-29T03:44:47;9.80;99.90
29341;DHT22;16337;59.536;13.468;2022-07-29T03:47:15;9.90;99.90
29341;DHT22;16337;59.536;13.468;2022-07-29T03:49:44;9.90;99.90
29341;DHT22;16337;59.536;13.468;2022-07-29T03:52:12;10.00;99.90
29341;DHT22;16337;59.536;13.468;2022-07-29T03:54:38;10.00;99.90
29341;DHT22;16337;59.536;13.468;2022-07-29T03:57:05;10.10;99.90
29341;DHT22;16337;59.536;13.468;2022-07-29T03:59:32;10.10;99.90
29341;DHT22;16337;59.536;13.468;2022-07-29T04:02:05;10.20;99.90
29341;DHT22;16337;59.536;13.468;2022-07-29T04:04:37;10.20;99.90
29341;DHT22;16337;59.536;13.468;2022-07-29T04:07:03;10.30;99.90
29341;DHT22;16337;59.536;13.468;2022-07-29T04:09:32;10.40;99.90
29341;DHT22;16337;59.536;13.468;2022-07-29T04:11:57;10.40;99.90
29341;DHT22;16337;59.536;13.468;2022-07-29T04:14:23;10.50;99.90
29341;DHT22;16337;59.536;13.468;2022-07-29T04:16:49;10.60;99.90
29341;DHT22;16337;59.536;13.468;2022-07-29T04:19:14;10.70;99.90
29341;DHT22;16337;59.536;13.468;2022-07-29T04:21:41;10.70;99.90
29341;DHT22;16337;59.536;13.468;2022-07-29T04:24:07;10.80;99.90
29341;DHT22;16337;59.536;13.468;2022-07-29T04:26:34;10.90;99.90
29341;DHT22;16337;59.536;13.468;2022-07-29T04:29:00;11.00;99.90
29341;DHT22;16337;59.536;13.468;2022-07-29T04:31:26;11.00;99.90
29341;DHT22;16337;59.536;13.468;2022-07-29T04:33:52;11.20;99.90
29341;DHT22;16337;59.536;13.468;2022-07-29T04:36:17;11.30;99.90
29341;DHT22;16337;59.536;13.468;2022-07-29T04:38:43;11.40;99.90
29341;DHT22;16337;59.536;13.468;2022-07-29T04:41:09;11.60;99.90
29341;DHT22;16337;59.536;13.468;2022-07-29T04:43:35;11.60;99.90
29341;DHT22;16337;59.536;13.468;2022-07-29T04:46:02;11.70;99.90
29341;DHT22;16337;59.536;13.468;2022-07-29T04:48:28;11.80;99.90
29341;DHT22;16337;59.536;13.468;2022-07-29T04:50:54;12.00;99.90
29341;DHT22;16337;59.536;13.468;2022-07-29T04:53:20;12.10;99.90
29341;DHT22;16337;59.536;13.468;2022-07-29T04:55:46;12.20;99.90
29341;DHT22;16337;59.536;13.468;2022-07-29T04:58:11;12.30;99.90
29341;DHT22;16337;59.536;13.468;2022-07-29T05:00:37;12.40;99.90
29341;DHT22;16337;59.536;13.468;2022-07-29T05:03:08;12.50;99.90
29341;DHT22;16337;59.536;13.468;2022-07-29T05:05:34;12.60;99.90
29341;DHT22;16337;59.536;13.468;2022-07-29T05:08:00;12.80;99.90
29341;DHT22;16337;59.536;13.468;2022-07-29T05:10:25;12.80;99.90
29341;DHT22;16337;59.536;13.468;2022-07-29T05:12:51;13.00;99.90
29341;DHT22;16337;59.536;13.468;2022-07-29T05:15:17;13.10;99.90
29341;DHT22;16337;59.536;13.468;2022-07-29T05:17:44;13.30;99.90
29341;DHT22;16337;59.536;13.468;2022-07-29T05:20:10;13.40;99.90
29341;DHT22;16337;59.536;13.468;2022-07-29T05:22:36;13.50;99.90
29341;DHT22;16337;59.536;13.468;2022-07-29T05:25:02;13.60;99.90
29341;DHT22;16337;59.536;13.468;2022-07-29T05:27:28;13.70;99.90
29341;DHT22;16337;59.536;13.468;2022-07-29T05:29:54;13.90;99.90
29341;DHT22;16337;59.536;13.468;2022-07-29T05:32:19;14.00;99.90
29341;DHT22;16337;59.536;13.468;2022-07-29T05:34:45;14.20;99.90
29341;DHT22;16337;59.536;13.468;2022-07-29T05:37:11;14.40;99.90
29341;DHT22;16337;59.536;13.468;2022-07-29T05:39:39;14.50;99.90
29341;DHT22;16337;59.536;13.468;2022-07-29T05:42:09;14.60;99.90
29341;DHT22;16337;59.536;13.468;2022-07-29T05:44:39;14.70;99.90
29341;DHT22;16337;59.536;13.468;2022-07-29T05:47:05;15.10;99.90
29341;DHT22;16337;59.536;13.468;2022-07-29T05:49:32;16.00;99.90
29341;DHT22;16337;59.536;13.468;2022-07-29T05:51:57;16.90;99.90
29341;DHT22;16337;59.536;13.468;2022-07-29T05:54:23;17.70;99.90
29341;DHT22;16337;59.536;13.468;2022-07-29T05:56:49;18.30;99.90
29341;DHT22;16337;59.536;13.468;2022-07-29T05:59:15;18.90;99.90
29341;DHT22;16337;59.536;13.468;2022-07-29T06:01:40;19.30;99.90
29341;DHT22;16337;59.536;13.468;2022-07-29T06:04:07;19.50;99.90
29341;DHT22;16337;59.536;13.468;2022-07-29T06:06:33;19.80;99.90
29341;DHT22;16337;59.536;13.468;2022-07-29T06:09:00;20.10;99.90
29341;DHT22;16337;59.536;13.468;2022-07-29T06:11:26;20.30;99.90
29341;DHT22;16337;59.536;13.468;2022-07-29T06:13:51;20.50;99.90
29341;DHT22;16337;59.536;13.468;2022-07-29T06:16:17;20.40;99.90
29341;DHT22;16337;59.536;13.468;2022-07-29T06:18:42;20.40;99.90
29341;DHT22;16337;59.536;13.468;2022-07-29T06:21:09;20.60;99.90
29341;DHT22;16337;59.536;13.468;2022-07-29T06:23:38;20.50;99.90
29341;DHT22;16337;59.536;13.468;2022-07-29T06:26:05;20.40;99.90
29341;DHT22;16337;59.536;13.468;2022-07-29T06:28:32;20.50;99.90
29341;DHT22;16337;59.536;13.468;2022-07-29T06:30:58;20.70;99.90
29341;DHT22;16337;59.536;13.468;2022-07-29T06:33:23;20.80;99.90
29341;DHT22;16337;59.536;13.468;2022-07-29T06:35:49;20.40;99.90
29341;DHT22;16337;59.536;13.468;2022-07-29T06:38:15;20.30;99.90
29341;DHT22;16337;59.536;13.468;2022-07-29T06:40:42;20.40;99.90
29341;DHT22;16337;59.536;13.468;2022-07-29T06:43:38;20.60;99.90
29341;DHT22;16337;59.536;13.468;2022-07-29T06:46:09;20.70;99.90
29341;DHT22;16337;59.536;13.468;2022-07-29T06:48:38;20.80;99.90
29341;DHT22;16337;59.536;13.468;2022-07-29T06:51:08;21.20;99.90
29341;DHT22;16337;59.536;13.468;2022-07-29T06:53:34;21.40;99.90
29341;DHT22;16337;59.536;13.468;2022-07-29T06:56:01;21.60;99.90
29341;DHT22;16337;59.536;13.468;2022-07-29T06:58:28;21.50;99.90
29341;DHT22;16337;59.536;13.468;2022-07-29T07:00:54;21.60;99.90
29341;DHT22;16337;59.536;13.468;2022-07-29T07:03:20;21.50;99.90
29341;DHT22;16337;59.536;13.468;2022-07-29T07:05:46;21.40;99.90
29341;DHT22;16337;59.536;13.468;2022-07-29T07:08:13;21.30;99.90
29341;DHT22;16337;59.536;13.468;2022-07-29T07:10:39;21.40;99.90
29341;DHT22;16337;59.536;13.468;2022-07-29T07:13:05;21.60;99.90
29341;DHT22;16337;59.536;13.468;2022-07-29T07:15:31;22.00;99.90
29341;DHT22;16337;59.536;13.468;2022-07-29T07:17:57;22.10;99.90
29341;DHT22;16337;59.536;13.468;2022-07-29T07:20:24;22.00;99.90
29341;DHT22;16337;59.536;13.468;2022-07-29T07:22:50;22.10;99.90
29341;DHT22;16337;59.536;13.468;2022-07-29T07:25:16;21.80;99.90
29341;DHT22;16337;59.536;13.468;2022-07-29T07:27:43;21.90;99.90
29341;DHT22;16337;59.536;13.468;2022-07-29T07:30:09;21.80;99.90
29341;DHT22;16337;59.536;13.468;2022-07-29T07:32:38;21.70;99.90
29341;DHT22;16337;59.536;13.468;2022-07-29T07:35:05;22.00;99.90
29341;DHT22;16337;59.536;13.468;2022-07-29T07:37:32;22.20;99.90
29341;DHT22;16337;59.536;13.468;2022-07-29T07:40:01;21.80;99.90
29341;DHT22;16337;59.536;13.468;2022-07-29T07:42:27;21.70;99.90
29341;DHT22;16337;59.536;13.468;2022-07-29T07:44:53;21.50;99.90
29341;DHT22;16337;59.536;13.468;2022-07-29T07:47:19;21.70;99.90
29341;DHT22;16337;59.536;13.468;2022-07-29T07:49:54;22.10;99.90
29341;DHT22;16337;59.536;13.468;2022-07-29T07:52:21;22.40;99.90
29341;DHT22;16337;59.536;13.468;2022-07-29T07:54:48;22.70;99.90
29341;DHT22;16337;59.536;13.468;2022-07-29T07:57:14;22.70;99.90
29341;DHT22;16337;59.536;13.468;2022-07-29T07:59:41;22.90;99.90
29341;DHT22;16337;59.536;13.468;2022-07-29T08:02:07;23.10;99.90
29341;DHT22;16337;59.536;13.468;2022-07-29T08:04:34;22.90;99.90
29341;DHT22;16337;59.536;13.468;2022-07-29T08:07:02;22.50;99.90
29341;DHT22;16337;59.536;13.468;2022-07-29T08:09:29;22.30;99.90
29341;DHT22;16337;59.536;13.468;2022-07-29T08:11:57;22.20;99.90
29341;DHT22;16337;59.536;13.468;2022-07-29T08:14:23;22.10;99.90
29341;DHT22;16337;59.536;13.468;2022-07-29T08:16:54;22.50;99.90
29341;DHT22;16337;59.536;13.468;2022-07-29T08:19:20;22.80;99.90
29341;DHT22;16337;59.536;13.468;2022-07-29T08:21:48;23.20;99.90
29341;DHT22;16337;59.536;13.468;2022-07-29T08:24:14;23.50;99.90
29341;DHT22;16337;59.536;13.468;2022-07-29T08:26:58;23.50;99.90
29341;DHT22;16337;59.536;13.468;2022-07-29T08:29:24;23.80;99.90
29341;DHT22;16337;59.536;13.468;2022-07-29T08:31:52;24.30;99.90
29341;DHT22;16337;59.536;13.468;2022-07-29T08:34:17;24.50;99.90
29341;DHT22;16337;59.536;13.468;2022-07-29T08:36:43;24.50;99.90
29341;DHT22;16337;59.536;13.468;2022-07-29T08:39:09;24.50;99.90
29341;DHT22;16337;59.536;13.468;2022-07-29T08:41:38;24.50;99.90
29341;DHT22;16337;59.536;13.468;2022-07-29T08:44:04;25.00;99.90
29341;DHT22;16337;59.536;13.468;2022-07-29T08:46:30;25.10;99.90
29341;DHT22;16337;59.536;13.468;2022-07-29T08:48:56;25.10;99.90
29341;DHT22;16337;59.536;13.468;2022-07-29T08:51:22;25.10;99.90
29341;DHT22;16337;59.536;13.468;2022-07-29T08:53:50;24.90;99.90
29341;DHT22;16337;59.536;13.468;2022-07-29T08:56:20;25.20;99.90
29341;DHT22;16337;59.536;13.468;2022-07-29T08:58:47;25.20;99.90
29341;DHT22;16337;59.536;13.468;2022-07-29T09:01:17;25.20;99.90
29341;DHT22;16337;59.536;13.468;2022-07-29T09:03:44;25.50;99.90
29341;DHT22;16337;59.536;13.468;2022-07-29T09:06:15;26.00;99.90
29341;DHT22;16337;59.536;13.468;2022-07-29T09:08:41;26.20;99.90
29341;DHT22;16337;59.536;13.468;2022-07-29T09:11:07;26.10;99.90
29341;DHT22;16337;59.536;13.468;2022-07-29T09:13:34;26.20;99.90
29341;DHT22;16337;59.536;13.468;2022-07-29T09:16:00;26.30;99.90
29341;DHT22;16337;59.536;13.468;2022-07-29T09:18:36;26.20;99.90
29341;DHT22;16337;59.536;13.468;2022-07-29T09:21:03;26.00;99.90
29341;DHT22;16337;59.536;13.468;2022-07-29T09:24:13;25.40;99.90
29341;DHT22;16337;59.536;13.468;2022-07-29T09:26:43;25.50;99.90
29341;DHT22;16337;59.536;13.468;2022-07-29T09:29:15;25.90;99.90
29341;DHT22;16337;59.536;13.468;2022-07-29T09:31:47;26.40;99.90
29341;DHT22;16337;59.536;13.468;2022-07-29T09:34:15;26.70;99.90
29341;DHT22;16337;59.536;13.468;2022-07-29T09:36:46;26.90;99.90
29341;DHT22;16337;59.536;13.468;2022-07-29T09:39:14;26.70;99.90
29341;DHT22;16337;59.536;13.468;2022-07-29T09:41:51;26.90;99.70
29341;DHT22;16337;59.536;13.468;2022-07-29T09:44:21;27.00;98.50
29341;DHT22;16337;59.536;13.468;2022-07-29T09:46:59;27.00;99.90
29341;DHT22;16337;59.536;13.468;2022-07-29T09:49:27;27.50;99.90
29341;DHT22;16337;59.536;13.468;2022-07-29T09:52:05;27.80;99.90
29341;DHT22;16337;59.536;13.468;2022-07-29T09:54:32;28.00;97.00
29341;DHT22;16337;59.536;13.468;2022-07-29T09:57:03;27.70;93.40
29341;DHT22;16337;59.536;13.468;2022-07-29T09:59:29;27.50;94.50
29341;DHT22;16337;59.536;13.468;2022-07-29T10:01:56;27.60;95.80
29341;DHT22;16337;59.536;13.468;2022-07-29T10:04:21;27.60;95.00
29341;DHT22;16337;59.536;13.468;2022-07-29T10:06:58;27.50;92.70
29341;DHT22;16337;59.536;13.468;2022-07-29T10:09:25;27.60;93.70
29341;DHT22;16337;59.536;13.468;2022-07-29T10:12:11;27.80;95.70
29341;DHT22;16337;59.536;13.468;2022-07-29T10:14:40;28.10;92.70
29341;DHT22;16337;59.536;13.468;2022-07-29T10:17:07;28.20;92.80
29341;DHT22;16337;59.536;13.468;2022-07-29T10:19:34;28.40;91.50
29341;DHT22;16337;59.536;13.468;2022-07-29T10:22:09;28.10;90.00
29341;DHT22;16337;59.536;13.468;2022-07-29T10:24:36;27.50;90.10
29341;DHT22;16337;59.536;13.468;2022-07-29T10:27:04;28.00;92.20
29341;DHT22;16337;59.536;13.468;2022-07-29T10:29:33;28.50;92.50
29341;DHT22;16337;59.536;13.468;2022-07-29T10:40:20;28.50;91.60
29341;DHT22;16337;59.536;13.468;2022-07-29T10:43:27;28.70;91.50
29341;DHT22;16337;59.536;13.468;2022-07-29T10:45:59;27.90;89.40
29341;DHT22;16337;59.536;13.468;2022-07-29T10:48:25;28.00;89.00
29341;DHT22;16337;59.536;13.468;2022-07-29T10:51:01;28.10;89.00
29341;DHT22;16337;59.536;13.468;2022-07-29T10:53:47;27.90;89.60
29341;DHT22;16337;59.536;13.468;2022-07-29T10:56:32;27.30;84.80
29341;DHT22;16337;59.536;13.468;2022-07-29T11:01:46;27.00;92.20
29341;DHT22;16337;59.536;13.468;2022-07-29T11:04:12;27.80;91.60
29341;DHT22;16337;59.536;13.468;2022-07-29T11:07:06;27.80;86.70
29341;DHT22;16337;59.536;13.468;2022-07-29T11:09:33;27.20;91.40
29341;DHT22;16337;59.536;13.468;2022-07-29T11:11:59;26.90;90.60
29341;DHT22;16337;59.536;13.468;2022-07-29T11:17:23;26.90;94.10
29341;DHT22;16337;59.536;13.468;2022-07-29T11:19:49;27.70;92.40
29341;DHT22;16337;59.536;13.468;2022-07-29T11:22:38;28.10;89.50
29341;DHT22;16337;59.536;13.468;2022-07-29T11:25:14;28.20;91.10
29341;DHT22;16337;59.536;13.468;2022-07-29T11:27:40;28.60;89.40
29341;DHT22;16337;59.536;13.468;2022-07-29T11:30:09;28.90;88.00
29341;DHT22;16337;59.536;13.468;2022-07-29T11:32:43;29.10;84.50
29341;DHT22;16337;59.536;13.468;2022-07-29T11:35:23;29.40;83.10
29341;DHT22;16337;59.536;13.468;2022-07-29T11:38:24;29.80;79.60
29341;DHT22;16337;59.536;13.468;2022-07-29T11:43:58;30.20;81.30
29341;DHT22;16337;59.536;13.468;2022-07-29T11:46:46;30.20;80.30
29341;DHT22;16337;59.536;13.468;2022-07-29T11:49:25;29.90;83.30
29341;DHT22;16337;59.536;13.468;2022-07-29T11:51:52;29.90;80.90
29341;DHT22;16337;59.536;13.468;2022-07-29T11:54:32;30.20;84.60
29341;DHT22;16337;59.536;13.468;2022-07-29T11:56:58;30.10;82.60
29341;DHT22;16337;59.536;13.468;2022-07-29T11:59:25;30.20;82.10
29341;DHT22;16337;59.536;13.468;2022-07-29T12:01:53;30.20;81.10
29341;DHT22;16337;59.536;13.468;2022-07-29T12:04:19;30.00;85.00
29341;DHT22;16337;59.536;13.468;2022-07-29T12:06:54;30.10;87.50
29341;DHT22;16337;59.536;13.468;2022-07-29T12:09:20;30.60;83.10
29341;DHT22;16337;59.536;13.468;2022-07-29T12:11:47;30.10;83.50
29341;DHT22;16337;59.536;13.468;2022-07-29T12:14:28;30.50;86.60
29341;DHT22;16337;59.536;13.468;2022-07-29T12:16:55;30.80;79.30
29341;DHT22;16337;59.536;13.468;2022-07-29T12:19:21;30.70;78.60
29341;DHT22;16337;59.536;13.468;2022-07-29T12:21:48;30.60;78.40
29341;DHT22;16337;59.536;13.468;2022-07-29T12:24:15;30.50;81.30
29341;DHT22;16337;59.536;13.468;2022-07-29T12:29:17;29.80;78.80
29341;DHT22;16337;59.536;13.468;2022-07-29T12:31:43;29.40;77.30
29341;DHT22;16337;59.536;13.468;2022-07-29T12:34:10;29.30;83.70
29341;DHT22;16337;59.536;13.468;2022-07-29T12:36:39;29.50;80.50
29341;DHT22;16337;59.536;13.468;2022-07-29T12:39:10;29.40;79.20
29341;DHT22;16337;59.536;13.468;2022-07-29T12:41:36;29.60;82.60
29341;DHT22;16337;59.536;13.468;2022-07-29T12:44:01;29.80;76.60
29341;DHT22;16337;59.536;13.468;2022-07-29T12:46:27;29.90;81.00
29341;DHT22;16337;59.536;13.468;2022-07-29T12:48:54;30.00;75.20
29341;DHT22;16337;59.536;13.468;2022-07-29T12:51:31;30.30;80.80
29341;DHT22;16337;59.536;13.468;2022-07-29T12:54:10;30.10;81.60
29341;DHT22;16337;59.536;13.468;2022-07-29T12:56:40;30.00;78.60
29341;DHT22;16337;59.536;13.468;2022-07-29T12:59:17;29.70;77.60
29341;DHT22;16337;59.536;13.468;2022-07-29T13:01:44;29.40;79.90
29341;DHT22;16337;59.536;13.468;2022-07-29T13:04:27;29.90;81.80
29341;DHT22;16337;59.536;13.468;2022-07-29T13:07:07;30.40;81.20
29341;DHT22;16337;59.536;13.468;2022-07-29T13:09:43;30.60;76.10
29341;DHT22;16337;59.536;13.468;2022-07-29T13:12:12;30.40;75.10
29341;DHT22;16337;59.536;13.468;2022-07-29T13:14:48;30.10;79.00
29341;DHT22;16337;59.536;13.468;2022-07-29T13:17:15;30.20;78.20
29341;DHT22;16337;59.536;13.468;2022-07-29T13:22:11;29.60;73.60
29341;DHT22;16337;59.536;13.468;2022-07-29T13:25:00;29.70;79.50
29341;DHT22;16337;59.536;13.468;2022-07-29T13:27:33;30.40;76.30
29341;DHT22;16337;59.536;13.468;2022-07-29T13:30:01;31.00;79.10
29341;DHT22;16337;59.536;13.468;2022-07-29T13:32:30;31.50;78.50
29341;DHT22;16337;59.536;13.468;2022-07-29T13:34:57;31.20;80.30
29341;DHT22;16337;59.536;13.468;2022-07-29T13:37:23;31.40;82.30
29341;DHT22;16337;59.536;13.468;2022-07-29T13:39:48;31.70;80.20
29341;DHT22;16337;59.536;13.468;2022-07-29T13:42:14;31.30;75.90
29341;DHT22;16337;59.536;13.468;2022-07-29T13:44:40;30.30;73.20
29341;DHT22;16337;59.536;13.468;2022-07-29T13:47:10;30.40;77.00
29341;DHT22;16337;59.536;13.468;2022-07-29T13:49:38;30.50;80.30
29341;DHT22;16337;59.536;13.468;2022-07-29T13:52:04;29.90;77.60
29341;DHT22;16337;59.536;13.468;2022-07-29T13:54:32;29.90;81.80
29341;DHT22;16337;59.536;13.468;2022-07-29T13:56:58;29.40;79.10
29341;DHT22;16337;59.536;13.468;2022-07-29T13:59:23;29.70;79.60
29341;DHT22;16337;59.536;13.468;2022-07-29T14:01:49;28.70;80.30
29341;DHT22;16337;59.536;13.468;2022-07-29T14:04:15;28.40;84.90
29341;DHT22;16337;59.536;13.468;2022-07-29T14:06:43;28.50;80.50
29341;DHT22;16337;59.536;13.468;2022-07-29T14:09:09;28.90;84.50
29341;DHT22;16337;59.536;13.468;2022-07-29T14:11:38;29.70;83.30
29341;DHT22;16337;59.536;13.468;2022-07-29T14:14:04;29.40;82.40
29341;DHT22;16337;59.536;13.468;2022-07-29T14:16:30;29.00;82.90
29341;DHT22;16337;59.536;13.468;2022-07-29T14:18:56;28.60;82.30
29341;DHT22;16337;59.536;13.468;2022-07-29T14:21:21;28.50;84.10
29341;DHT22;16337;59.536;13.468;2022-07-29T14:23:47;28.90;82.10
29341;DHT22;16337;59.536;13.468;2022-07-29T14:26:13;29.20;82.50
29341;DHT22;16337;59.536;13.468;2022-07-29T14:28:39;29.30;82.60
29341;DHT22;16337;59.536;13.468;2022-07-29T14:31:04;28.60;82.00
29341;DHT22;16337;59.536;13.468;2022-07-29T14:33:30;28.40;84.00
29341;DHT22;16337;59.536;13.468;2022-07-29T14:35:56;28.40;82.90
29341;DHT22;16337;59.536;13.468;2022-07-29T14:38:22;28.50;82.90
29341;DHT22;16337;59.536;13.468;2022-07-29T14:40:47;28.50;84.90
29341;DHT22;16337;59.536;13.468;2022-07-29T14:43:14;28.10;84.50
29341;DHT22;16337;59.536;13.468;2022-07-29T14:45:40;27.70;86.50
29341;DHT22;16337;59.536;13.468;2022-07-29T14:48:06;27.60;85.10
29341;DHT22;16337;59.536;13.468;2022-07-29T14:50:32;27.60;88.20
29341;DHT22;16337;59.536;13.468;2022-07-29T14:52:59;28.00;87.00
29341;DHT22;16337;59.536;13.468;2022-07-29T14:55:25;28.80;83.20
29341;DHT22;16337;59.536;13.468;2022-07-29T14:57:51;29.30;81.00
29341;DHT22;16337;59.536;13.468;2022-07-29T15:00:17;29.80;80.60
29341;DHT22;16337;59.536;13.468;2022-07-29T15:02:43;30.20;78.50
29341;DHT22;16337;59.536;13.468;2022-07-29T15:05:09;30.10;80.50
29341;DHT22;16337;59.536;13.468;2022-07-29T15:07:34;30.20;77.30
29341;DHT22;16337;59.536;13.468;2022-07-29T15:10:00;29.70;79.60
29341;DHT22;16337;59.536;13.468;2022-07-29T15:12:26;29.00;76.60
29341;DHT22;16337;59.536;13.468;2022-07-29T15:14:52;28.70;80.00
29341;DHT22;16337;59.536;13.468;2022-07-29T15:17:17;28.50;80.70
29341;DHT22;16337;59.536;13.468;2022-07-29T15:19:43;28.50;77.70
29341;DHT22;16337;59.536;13.468;2022-07-29T15:22:09;28.30;81.30
29341;DHT22;16337;59.536;13.468;2022-07-29T15:24:37;28.60;81.10
29341;DHT22;16337;59.536;13.468;2022-07-29T15:27:03;28.60;82.00
29341;DHT22;16337;59.536;13.468;2022-07-29T15:29:28;28.70;81.90
29341;DHT22;16337;59.536;13.468;2022-07-29T15:31:54;28.60;84.10
29341;DHT22;16337;59.536;13.468;2022-07-29T15:34:20;28.40;80.10
29341;DHT22;16337;59.536;13.468;2022-07-29T15:36:46;27.90;79.80
29341;DHT22;16337;59.536;13.468;2022-07-29T15:39:14;27.90;79.50
29341;DHT22;16337;59.536;13.468;2022-07-29T15:41:40;27.70;80.80
29341;DHT22;16337;59.536;13.468;2022-07-29T15:44:06;27.70;82.10
29341;DHT22;16337;59.536;13.468;2022-07-29T15:46:32;27.40;79.50
29341;DHT22;16337;59.536;13.468;2022-07-29T15:49:16;27.20;84.50
29341;DHT22;16337;59.536;13.468;2022-07-29T15:51:41;27.00;83.60
29341;DHT22;16337;59.536;13.468;2022-07-29T15:54:07;26.60;84.40
29341;DHT22;16337;59.536;13.468;2022-07-29T15:56:33;26.10;85.00
29341;DHT22;16337;59.536;13.468;2022-07-29T15:58:59;25.90;88.60
29341;DHT22;16337;59.536;13.468;2022-07-29T16:01:25;25.70;86.50
29341;DHT22;16337;59.536;13.468;2022-07-29T16:03:51;25.30;86.90
29341;DHT22;16337;59.536;13.468;2022-07-29T16:06:17;25.20;88.60